sensor_id;sensor_type;location;lat;lon;timestamp;temperature;humidity
23813;DHT22;12087;45.190;5.688;2023-01-24T00:02:30;2.90;99.90
23813;DHT22;12087;45.190;5.688;2023-01-24T00:07:52;2.90;99.90
23813;DHT22;12087;45.190;5.688;2023-01-24T00:13:16;3.00;99.90
23813;DHT22;12087;45.190;5.688;2023-01-24T00:18:39;2.90;99.90
23813;DHT22;12087;45.190;5.688;2023-01-24T00:24:01;2.90;99.90
23813;DHT22;12087;45.190;5.688;2023-01-24T00:29:25;2.90;99.90
23813;DHT22;12087;45.190;5.688;2023-01-24T00:34:47;2.80;99.90
23813;DHT22;12087;45.190;5.688;2023-01-24T00:40:10;2.90;99.90
23813;DHT22;12087;45.190;5.688;2023-01-24T00:45:36;2.80;99.90
23813;DHT22;12087;45.190;5.688;2023-01-24T00:50:59;2.70;99.90
23813;DHT22;12087;45.190;5.688;2023-01-24T00:56:21;2.60;99.90
23813;DHT22;12087;45.190;5.688;2023-01-24T01:01:45;2.60;99.90
23813;DHT22;12087;45.190;5.688;2023-01-24T01:07:07;2.60;99.90
23813;DHT22;12087;45.190;5.688;2023-01-24T01:12:29;2.40;99.90
23813;DHT22;12087;45.190;5.688;2023-01-24T01:17:53;2.40;99.90
23813;DHT22;12087;45.190;5.688;2023-01-24T01:23:16;2.40;99.90
23813;DHT22;12087;45.190;5.688;2023-01-24T01:28:38;2.40;99.90
23813;DHT22;12087;45.190;5.688;2023-01-24T01:34:02;2.20;99.90
23813;DHT22;12087;45.190;5.688;2023-01-24T01:39:25;2.10;99.90
23813;DHT22;12087;45.190;5.688;2023-01-24T01:44:49;2.10;99.90
23813;DHT22;12087;45.190;5.688;2023-01-24T01:50:20;2.00;99.90
23813;DHT22;12087;45.190;5.688;2023-01-24T01:55:49;2.00;99.90
23813;DHT22;12087;45.190;5.688;2023-01-24T02:01:13;2.00;99.90
23813;DHT22;12087;45.190;5.688;2023-01-24T02:06:50;1.90;99.90
23813;DHT22;12087;45.190;5.688;2023-01-24T02:12:19;1.90;99.90
23813;DHT22;12087;45.190;5.688;2023-01-24T02:17:42;2.00;99.90
23813;DHT22;12087;45.190;5.688;2023-01-24T02:23:17;1.90;99.90
23813;DHT22;12087;45.190;5.688;2023-01-24T02:28:46;1.90;99.90
23813;DHT22;12087;45.190;5.688;2023-01-24T02:34:10;1.80;99.90
23813;DHT22;12087;45.190;5.688;2023-01-24T02:39:35;1.80;99.90
23813;DHT22;12087;45.190;5.688;2023-01-24T02:45:07;1.80;99.90
23813;DHT22;12087;45.190;5.688;2023-01-24T02:50:31;1.70;99.90
23813;DHT22;12087;45.190;5.688;2023-01-24T02:56:15;1.70;99.90
23813;DHT22;12087;45.190;5.688;2023-01-24T03:01:56;1.80;99.90
23813;DHT22;12087;45.190;5.688;2023-01-24T03:07:18;1.80;99.90
23813;DHT22;12087;45.190;5.688;2023-01-24T03:12:41;1.80;99.90
23813;DHT22;12087;45.190;5.688;2023-01-24T03:18:22;1.80;99.90
23813;DHT22;12087;45.190;5.688;2023-01-24T03:24:02;1.80;99.90
23813;DHT22;12087;45.190;5.688;2023-01-24T03:29:41;1.90;99.90
23813;DHT22;12087;45.190;5.688;2023-01-24T03:35:22;1.80;99.90
23813;DHT22;12087;45.190;5.688;2023-01-24T03:40:45;1.80;99.90
23813;DHT22;12087;45.190;5.688;2023-01-24T03:46:07;1.70;99.90
23813;DHT22;12087;45.190;5.688;2023-01-24T03:51:31;1.70;99.90
23813;DHT22;12087;45.190;5.688;2023-01-24T03:57:10;1.80;99.90
23813;DHT22;12087;45.190;5.688;2023-01-24T04:02:33;1.80;99.90
23813;DHT22;12087;45.190;5.688;2023-01-24T04:07:56;1.90;99.90
23813;DHT22;12087;45.190;5.688;2023-01-24T04:13:19;1.90;99.90
23813;DHT22;12087;45.190;5.688;2023-01-24T04:18:43;1.80;99.90
23813;DHT22;12087;45.190;5.688;2023-01-24T04:24:07;1.70;99.90
23813;DHT22;12087;45.190;5.688;2023-01-24T04:29:29;1.70;99.90
23813;DHT22;12087;45.190;5.688;2023-01-24T04:34:52;1.60;99.90
23813;DHT22;12087;45.190;5.688;2023-01-24T04:40:16;1.60;99.90
23813;DHT22;12087;45.190;5.688;2023-01-24T04:45:39;1.50;99.90
23813;DHT22;12087;45.190;5.688;2023-01-24T04:51:01;1.60;99.90
23813;DHT22;12087;45.190;5.688;2023-01-24T04:56:25;1.70;99.90
23813;DHT22;12087;45.190;5.688;2023-01-24T05:01:47;1.60;99.90
23813;DHT22;12087;45.190;5.688;2023-01-24T05:07:10;1.50;99.90
23813;DHT22;12087;45.190;5.688;2023-01-24T05:12:34;1.60;99.90
23813;DHT22;12087;45.190;5.688;2023-01-24T05:17:56;1.60;99.90
23813;DHT22;12087;45.190;5.688;2023-01-24T05:23:18;1.70;99.90
23813;DHT22;12087;45.190;5.688;2023-01-24T05:28:42;1.70;99.90
23813;DHT22;12087;45.190;5.688;2023-01-24T05:34:05;1.70;99.90
23813;DHT22;12087;45.190;5.688;2023-01-24T05:39:27;1.60;99.90
23813;DHT22;12087;45.190;5.688;2023-01-24T05:44:51;1.60;99.90
23813;DHT22;12087;45.190;5.688;2023-01-24T05:50:13;1.60;99.90
23813;DHT22;12087;45.190;5.688;2023-01-24T05:55:35;1.50;99.90
23813;DHT22;12087;45.190;5.688;2023-01-24T06:00:59;1.50;99.90
23813;DHT22;12087;45.190;5.688;2023-01-24T06:06:23;1.50;99.90
23813;DHT22;12087;45.190;5.688;2023-01-24T06:11:46;1.50;99.90
23813;DHT22;12087;45.190;5.688;2023-01-24T06:17:09;1.40;99.90
23813;DHT22;12087;45.190;5.688;2023-01-24T06:22:36;1.40;99.90
23813;DHT22;12087;45.190;5.688;2023-01-24T06:28:04;1.40;99.90
23813;DHT22;12087;45.190;5.688;2023-01-24T06:33:36;1.40;99.90
23813;DHT22;12087;45.190;5.688;2023-01-24T06:39:03;1.30;99.90
23813;DHT22;12087;45.190;5.688;2023-01-24T06:50:44;1.20;99.90
23813;DHT22;12087;45.190;5.688;2023-01-24T06:56:08;1.10;99.90
23813;DHT22;12087;45.190;5.688;2023-01-24T07:01:30;1.20;99.90
23813;DHT22;12087;45.190;5.688;2023-01-24T07:06:54;1.10;99.90
23813;DHT22;12087;45.190;5.688;2023-01-24T07:12:16;1.10;99.90
23813;DHT22;12087;45.190;5.688;2023-01-24T07:17:39;1.10;99.90
23813;DHT22;12087;45.190;5.688;2023-01-24T07:23:03;1.10;99.90
23813;DHT22;12087;45.190;5.688;2023-01-24T07:28:26;1.20;99.90
23813;DHT22;12087;45.190;5.688;2023-01-24T07:33:48;1.20;99.90
23813;DHT22;12087;45.190;5.688;2023-01-24T07:39:12;1.10;99.90
23813;DHT22;12087;45.190;5.688;2023-01-24T07:44:34;1.10;99.90
23813;DHT22;12087;45.190;5.688;2023-01-24T07:49:57;1.00;99.90
23813;DHT22;12087;45.190;5.688;2023-01-24T07:55:21;1.00;99.90
23813;DHT22;12087;45.190;5.688;2023-01-24T08:00:44;1.00;99.90
23813;DHT22;12087;45.190;5.688;2023-01-24T08:06:07;0.90;99.90
23813;DHT22;12087;45.190;5.688;2023-01-24T08:11:30;1.00;99.90
23813;DHT22;12087;45.190;5.688;2023-01-24T08:16:53;1.10;99.90
23813;DHT22;12087;45.190;5.688;2023-01-24T08:22:16;1.00;99.90
23813;DHT22;12087;45.190;5.688;2023-01-24T08:27:41;1.10;99.90
23813;DHT22;12087;45.190;5.688;2023-01-24T08:33:05;1.10;99.90
23813;DHT22;12087;45.190;5.688;2023-01-24T08:38:27;1.10;99.90
23813;DHT22;12087;45.190;5.688;2023-01-24T08:43:53;1.20;99.90
23813;DHT22;12087;45.190;5.688;2023-01-24T08:49:15;1.20;99.90
23813;DHT22;12087;45.190;5.688;2023-01-24T08:54:37;1.30;99.90
23813;DHT22;12087;45.190;5.688;2023-01-24T09:00:02;1.30;99.90
23813;DHT22;12087;45.190;5.688;2023-01-24T09:05:24;1.40;99.90
23813;DHT22;12087;45.190;5.688;2023-01-24T09:10:47;1.50;99.90
23813;DHT22;12087;45.190;5.688;2023-01-24T09:16:10;1.50;99.90
23813;DHT22;12087;45.190;5.688;2023-01-24T09:21:33;1.50;99.90
23813;DHT22;12087;45.190;5.688;2023-01-24T09:26:55;1.60;99.90
23813;DHT22;12087;45.190;5.688;2023-01-24T09:32:19;1.60;99.90
23813;DHT22;12087;45.190;5.688;2023-01-24T09:37:41;1.80;99.90
23813;DHT22;12087;45.190;5.688;2023-01-24T09:43:14;1.80;99.90
23813;DHT22;12087;45.190;5.688;2023-01-24T09:48:40;1.90;99.90
23813;DHT22;12087;45.190;5.688;2023-01-24T09:54:04;2.00;99.90
23813;DHT22;12087;45.190;5.688;2023-01-24T09:59:35;2.10;99.90
23813;DHT22;12087;45.190;5.688;2023-01-24T10:05:02;2.20;99.90
23813;DHT22;12087;45.190;5.688;2023-01-24T10:10:40;2.30;99.90
23813;DHT22;12087;45.190;5.688;2023-01-24T10:16:07;2.40;99.90
23813;DHT22;12087;45.190;5.688;2023-01-24T10:21:50;2.50;99.90
23813;DHT22;12087;45.190;5.688;2023-01-24T10:27:24;2.60;99.90
23813;DHT22;12087;45.190;5.688;2023-01-24T10:32:52;2.70;99.90
23813;DHT22;12087;45.190;5.688;2023-01-24T10:38:18;2.80;99.90
23813;DHT22;12087;45.190;5.688;2023-01-24T10:43:44;2.90;99.90
23813;DHT22;12087;45.190;5.688;2023-01-24T10:49:11;3.00;99.90
23813;DHT22;12087;45.190;5.688;2023-01-24T10:54:50;3.20;99.90
23813;DHT22;12087;45.190;5.688;2023-01-24T11:00:25;3.20;99.90
23813;DHT22;12087;45.190;5.688;2023-01-24T11:05:52;3.40;99.90
23813;DHT22;12087;45.190;5.688;2023-01-24T11:11:22;3.50;99.90
23813;DHT22;12087;45.190;5.688;2023-01-24T11:16:47;3.60;99.90
23813;DHT22;12087;45.190;5.688;2023-01-24T11:22:20;3.70;99.90
23813;DHT22;12087;45.190;5.688;2023-01-24T11:27:48;3.90;99.90
23813;DHT22;12087;45.190;5.688;2023-01-24T11:33:23;4.00;99.90
23813;DHT22;12087;45.190;5.688;2023-01-24T11:38:51;4.10;99.90
23813;DHT22;12087;45.190;5.688;2023-01-24T11:44:47;4.20;99.90
23813;DHT22;12087;45.190;5.688;2023-01-24T11:50:26;4.30;99.90
23813;DHT22;12087;45.190;5.688;2023-01-24T11:55:56;4.40;99.90
23813;DHT22;12087;45.190;5.688;2023-01-24T12:01:32;4.50;99.90
23813;DHT22;12087;45.190;5.688;2023-01-24T12:07:02;4.60;99.90
23813;DHT22;12087;45.190;5.688;2023-01-24T12:12:30;4.70;99.90
23813;DHT22;12087;45.190;5.688;2023-01-24T12:18:13;4.80;99.90
23813;DHT22;12087;45.190;5.688;2023-01-24T12:23:45;4.90;99.90
23813;DHT22;12087;45.190;5.688;2023-01-24T12:29:14;5.00;99.90
23813;DHT22;12087;45.190;5.688;2023-01-24T12:34:45;5.10;99.90
23813;DHT22;12087;45.190;5.688;2023-01-24T12:40:18;5.20;99.90
23813;DHT22;12087;45.190;5.688;2023-01-24T12:45:45;5.20;99.90
23813;DHT22;12087;45.190;5.688;2023-01-24T12:51:24;5.20;99.90
23813;DHT22;12087;45.190;5.688;2023-01-24T12:56:54;5.40;99.90
23813;DHT22;12087;45.190;5.688;2023-01-24T13:02:29;5.40;99.90
23813;DHT22;12087;45.190;5.688;2023-01-24T13:08:06;5.50;99.90
23813;DHT22;12087;45.190;5.688;2023-01-24T13:13:34;5.40;99.90
23813;DHT22;12087;45.190;5.688;2023-01-24T13:19:02;5.50;99.90
23813;DHT22;12087;45.190;5.688;2023-01-24T13:24:43;5.60;99.90
23813;DHT22;12087;45.190;5.688;2023-01-24T13:30:21;5.90;99.90
23813;DHT22;12087;45.190;5.688;2023-01-24T13:35:48;6.10;99.90
23813;DHT22;12087;45.190;5.688;2023-01-24T13:41:34;6.20;99.90
23813;DHT22;12087;45.190;5.688;2023-01-24T13:47:00;6.40;99.90
23813;DHT22;12087;45.190;5.688;2023-01-24T13:52:36;6.40;99.90
23813;DHT22;12087;45.190;5.688;2023-01-24T14:03:56;6.50;99.90
23813;DHT22;12087;45.190;5.688;2023-01-24T14:09:21;6.60;99.90
23813;DHT22;12087;45.190;5.688;2023-01-24T14:15:02;6.70;99.90
23813;DHT22;12087;45.190;5.688;2023-01-24T14:20:45;6.80;99.90
23813;DHT22;12087;45.190;5.688;2023-01-24T14:26:13;6.90;99.90
23813;DHT22;12087;45.190;5.688;2023-01-24T14:31:38;7.00;99.90
23813;DHT22;12087;45.190;5.688;2023-01-24T14:37:07;7.10;99.50
23813;DHT22;12087;45.190;5.688;2023-01-24T14:42:30;7.10;99.60
23813;DHT22;12087;45.190;5.688;2023-01-24T14:47:52;6.80;99.90
23813;DHT22;12087;45.190;5.688;2023-01-24T14:53:27;6.50;99.90
23813;DHT22;12087;45.190;5.688;2023-01-24T14:58:50;6.30;99.90
23813;DHT22;12087;45.190;5.688;2023-01-24T15:04:24;6.30;99.90
23813;DHT22;12087;45.190;5.688;2023-01-24T15:09:48;6.10;99.90
23813;DHT22;12087;45.190;5.688;2023-01-24T15:15:16;6.00;99.90
23813;DHT22;12087;45.190;5.688;2023-01-24T15:20:39;5.80;99.90
23813;DHT22;12087;45.190;5.688;2023-01-24T15:26:22;5.70;99.90
23813;DHT22;12087;45.190;5.688;2023-01-24T15:31:48;5.50;99.90
23813;DHT22;12087;45.190;5.688;2023-01-24T15:37:13;5.40;99.90
23813;DHT22;12087;45.190;5.688;2023-01-24T15:42:37;5.30;99.90
23813;DHT22;12087;45.190;5.688;2023-01-24T15:48:21;5.20;99.90
23813;DHT22;12087;45.190;5.688;2023-01-24T15:53:43;5.00;99.90
23813;DHT22;12087;45.190;5.688;2023-01-24T15:59:14;5.00;99.90
23813;DHT22;12087;45.190;5.688;2023-01-24T16:04:37;4.80;99.90
23813;DHT22;12087;45.190;5.688;2023-01-24T16:10:00;4.70;99.90
23813;DHT22;12087;45.190;5.688;2023-01-24T16:15:23;4.70;99.90
23813;DHT22;12087;45.190;5.688;2023-01-24T16:20:46;4.60;99.90
23813;DHT22;12087;45.190;5.688;2023-01-24T16:26:17;4.40;99.90
23813;DHT22;12087;45.190;5.688;2023-01-24T16:31:41;4.40;99.90
23813;DHT22;12087;45.190;5.688;2023-01-24T16:37:04;4.30;99.90
23813;DHT22;12087;45.190;5.688;2023-01-24T16:42:26;4.10;99.90
23813;DHT22;12087;45.190;5.688;2023-01-24T16:47:50;4.10;99.90
23813;DHT22;12087;45.190;5.688;2023-01-24T16:53:13;4.00;99.90
23813;DHT22;12087;45.190;5.688;2023-01-24T16:58:36;4.00;99.90
23813;DHT22;12087;45.190;5.688;2023-01-24T17:04:01;3.90;99.90
23813;DHT22;12087;45.190;5.688;2023-01-24T17:09:24;3.90;99.90
23813;DHT22;12087;45.190;5.688;2023-01-24T17:14:47;3.80;99.90
23813;DHT22;12087;45.190;5.688;2023-01-24T17:20:12;3.70;99.90
23813;DHT22;12087;45.190;5.688;2023-01-24T17:25:34;3.70;99.90
23813;DHT22;12087;45.190;5.688;2023-01-24T17:30:57;3.60;99.90
23813;DHT22;12087;45.190;5.688;2023-01-24T17:36:21;3.50;99.90
23813;DHT22;12087;45.190;5.688;2023-01-24T17:41:43;3.40;99.90
23813;DHT22;12087;45.190;5.688;2023-01-24T17:47:06;3.30;99.90
23813;DHT22;12087;45.190;5.688;2023-01-24T17:52:29;3.30;99.90
23813;DHT22;12087;45.190;5.688;2023-01-24T17:57:52;3.20;99.90
23813;DHT22;12087;45.190;5.688;2023-01-24T18:03:14;3.20;99.90
23813;DHT22;12087;45.190;5.688;2023-01-24T18:08:38;3.20;99.90
23813;DHT22;12087;45.190;5.688;2023-01-24T18:14:01;3.20;99.90
23813;DHT22;12087;45.190;5.688;2023-01-24T18:19:23;3.20;99.90
23813;DHT22;12087;45.190;5.688;2023-01-24T18:24:47;3.20;99.90
23813;DHT22;12087;45.190;5.688;2023-01-24T18:30:10;3.20;99.90
23813;DHT22;12087;45.190;5.688;2023-01-24T18:35:33;3.20;99.90
23813;DHT22;12087;45.190;5.688;2023-01-24T18:40:57;3.40;99.90
23813;DHT22;12087;45.190;5.688;2023-01-24T18:46:19;3.40;99.90
23813;DHT22;12087;45.190;5.688;2023-01-24T18:51:41;3.50;99.90
23813;DHT22;12087;45.190;5.688;2023-01-24T18:57:08;3.60;99.90
23813;DHT22;12087;45.190;5.688;2023-01-24T19:02:31;3.60;99.90
23813;DHT22;12087;45.190;5.688;2023-01-24T19:07:53;3.60;99.90
23813;DHT22;12087;45.190;5.688;2023-01-24T19:13:32;3.60;99.90
23813;DHT22;12087;45.190;5.688;2023-01-24T19:18:56;3.60;99.90
23813;DHT22;12087;45.190;5.688;2023-01-24T19:24:18;3.60;99.90
23813;DHT22;12087;45.190;5.688;2023-01-24T19:29:45;3.60;99.90
23813;DHT22;12087;45.190;5.688;2023-01-24T19:35:08;3.60;99.90
23813;DHT22;12087;45.190;5.688;2023-01-24T19:40:30;3.60;99.90
23813;DHT22;12087;45.190;5.688;2023-01-24T19:45:54;3.60;99.90
23813;DHT22;12087;45.190;5.688;2023-01-24T19:51:19;3.60;99.90
23813;DHT22;12087;45.190;5.688;2023-01-24T19:56:42;3.60;99.90
23813;DHT22;12087;45.190;5.688;2023-01-24T20:02:05;3.60;99.90
23813;DHT22;12087;45.190;5.688;2023-01-24T20:07:28;3.60;99.90
23813;DHT22;12087;45.190;5.688;2023-01-24T20:12:51;3.70;99.90
23813;DHT22;12087;45.190;5.688;2023-01-24T20:18:15;3.70;99.90
23813;DHT22;12087;45.190;5.688;2023-01-24T20:23:37;3.70;99.90
23813;DHT22;12087;45.190;5.688;2023-01-24T20:29:00;3.60;99.90
23813;DHT22;12087;45.190;5.688;2023-01-24T20:34:24;3.70;99.90
23813;DHT22;12087;45.190;5.688;2023-01-24T20:39:47;3.60;99.90
23813;DHT22;12087;45.190;5.688;2023-01-24T20:45:10;3.60;99.90
23813;DHT22;12087;45.190;5.688;2023-01-24T20:50:34;3.60;99.90
23813;DHT22;12087;45.190;5.688;2023-01-24T20:55:58;3.60;99.90
23813;DHT22;12087;45.190;5.688;2023-01-24T21:01:22;3.70;99.90
23813;DHT22;12087;45.190;5.688;2023-01-24T21:06:47;3.70;99.90
23813;DHT22;12087;45.190;5.688;2023-01-24T21:12:09;3.70;99.90
23813;DHT22;12087;45.190;5.688;2023-01-24T21:17:31;3.70;99.90
23813;DHT22;12087;45.190;5.688;2023-01-24T21:22:55;3.70;99.90
23813;DHT22;12087;45.190;5.688;2023-01-24T21:28:18;3.70;99.90
23813;DHT22;12087;45.190;5.688;2023-01-24T21:33:40;3.70;99.90
23813;DHT22;12087;45.190;5.688;2023-01-24T21:39:04;3.70;99.90
23813;DHT22;12087;45.190;5.688;2023-01-24T21:44:31;3.70;99.90
23813;DHT22;12087;45.190;5.688;2023-01-24T21:49:53;3.60;99.90
23813;DHT22;12087;45.190;5.688;2023-01-24T21:55:17;3.60;99.90
23813;DHT22;12087;45.190;5.688;2023-01-24T22:00:39;3.60;99.90
23813;DHT22;12087;45.190;5.688;2023-01-24T22:06:02;3.50;99.90
23813;DHT22;12087;45.190;5.688;2023-01-24T22:11:26;3.50;99.90
23813;DHT22;12087;45.190;5.688;2023-01-24T22:16:50;3.50;99.90
23813;DHT22;12087;45.190;5.688;2023-01-24T22:22:33;3.40;99.90
23813;DHT22;12087;45.190;5.688;2023-01-24T22:27:59;3.40;99.90
23813;DHT22;12087;45.190;5.688;2023-01-24T22:33:22;3.30;99.90
23813;DHT22;12087;45.190;5.688;2023-01-24T22:38:45;3.30;99.90
23813;DHT22;12087;45.190;5.688;2023-01-24T22:44:08;3.20;99.90
23813;DHT22;12087;45.190;5.688;2023-01-24T22:49:31;3.20;99.90
23813;DHT22;12087;45.190;5.688;2023-01-24T22:54:56;3.20;99.90
23813;DHT22;12087;45.190;5.688;2023-01-24T23:00:20;3.10;99.90
23813;DHT22;12087;45.190;5.688;2023-01-24T23:05:42;3.10;99.90
23813;DHT22;12087;45.190;5.688;2023-01-24T23:11:08;3.10;99.90
23813;DHT22;12087;45.190;5.688;2023-01-24T23:16:38;3.10;99.90
23813;DHT22;12087;45.190;5.688;2023-01-24T23:22:01;3.10;99.90
23813;DHT22;12087;45.190;5.688;2023-01-24T23:27:25;3.10;99.90
23813;DHT22;12087;45.190;5.688;2023-01-24T23:32:54;3.10;99.90
23813;DHT22;12087;45.190;5.688;2023-01-24T23:38:17;3.00;99.90
23813;DHT22;12087;45.190;5.688;2023-01-24T23:43:39;3.00;99.90
23813;DHT22;12087;45.190;5.688;2023-01-24T23:49:03;3.10;99.90
23813;DHT22;12087;45.190;5.688;2023-01-24T23:54:25;3.10;99.90
23813;DHT22;12087;45.190;5.688;2023-01-24T23:59:47;3.10;99.90
